Time;durP1;ratioP1;P1;durP2;ratioP2;P2;SDS_P1;SDS_P2;PMS_P1;PMS_P2;Temp;Humidity;BMP_temperature;BMP_pressure;BME280_temperature;BME280_humidity;BME280_pressure;Samples;Min_cycle;Max_cycle;Signal;HPM_P1;HPM_P2
2022/07/06 00:01:53;;;;;;;14.73;6.92;;;;;;;14.88;76.30;100482.78;2155194;81;27773;-63
2022/07/06 00:04:54;;;;;;;12.93;7.12;;;;;;;14.84;76.31;100484.78;2178870;81;28675;-64
2022/07/06 00:07:56;;;;;;;10.30;6.97;;;;;;;14.81;76.37;100487.67;2178666;81;31467;-64
2022/07/06 00:10:57;;;;;;;13.35;7.12;;;;;;;14.78;76.48;100485.67;2178534;81;33013;-64
2022/07/06 00:13:59;;;;;;;7.30;6.47;;;;;;;14.77;76.65;100496.95;2178811;81;29386;-64
2022/07/06 00:17:01;;;;;;;9.18;7.17;;;;;;;14.73;76.62;100494.91;2178887;81;27713;-64
2022/07/06 00:20:03;;;;;;;11.75;6.78;;;;;;;14.70;76.70;100492.44;2178966;81;28635;-64
2022/07/06 00:23:05;;;;;;;9.48;8.10;;;;;;;14.68;76.74;100493.02;2178730;81;31009;-64
2022/07/06 00:26:06;;;;;;;11.68;8.13;;;;;;;14.65;76.95;100484.20;2178988;81;33002;-64
2022/07/06 00:29:08;;;;;;;11.50;7.95;;;;;;;14.63;76.93;100491.55;2178878;81;29480;-65
2022/07/06 00:32:14;;;;;;;14.83;8.18;;;;;;;14.61;76.98;100491.63;2179110;81;27691;-65
2022/07/06 00:35:16;;;;;;;11.75;7.95;;;;;;;14.59;77.00;100490.85;2178922;81;29500;-65
2022/07/06 00:38:17;;;;;;;8.80;7.30;;;;;;;14.56;77.07;100487.03;2178765;81;30748;-65
2022/07/06 00:41:18;;;;;;;13.68;8.00;;;;;;;14.53;77.14;100483.17;2178711;81;33189;-64
2022/07/06 00:44:20;;;;;;;13.98;8.30;;;;;;;14.50;77.26;100484.21;2178943;81;29313;-64
2022/07/06 00:47:21;;;;;;;18.10;8.38;;;;;;;14.48;77.48;100479.89;2178782;81;27734;-64
2022/07/06 00:50:23;;;;;;;12.37;8.78;;;;;;;14.44;77.52;100476.53;2178826;81;29365;-65
2022/07/06 00:53:24;;;;;;;13.20;8.70;;;;;;;14.41;77.76;100473.53;2178812;81;31024;-65
2022/07/06 00:56:27;;;;;;;18.32;9.80;;;;;;;14.39;77.70;100478.17;2178865;81;32960;-65
2022/07/06 00:59:28;;;;;;;11.18;9.78;;;;;;;14.40;77.95;100481.23;2155163;81;30133;-65
2022/07/06 01:02:35;;;;;;;11.90;9.80;;;;;;;14.38;78.09;100479.14;2155849;81;27744;-64
2022/07/06 01:05:37;;;;;;;13.03;9.50;;;;;;;14.38;78.18;100479.61;2181753;81;28658;-64
2022/07/06 01:08:38;;;;;;;14.93;10.03;;;;;;;14.38;78.30;100481.83;2181297;81;30449;-64
2022/07/06 01:11:40;;;;;;;10.15;9.15;;;;;;;14.36;78.41;100484.22;2181720;81;33609;-64
2022/07/06 01:14:41;;;;;;;12.30;10.25;;;;;;;14.36;78.49;100481.52;2181769;81;29347;-65
2022/07/06 01:17:44;;;;;;;13.55;10.25;;;;;;;14.36;78.59;100481.06;2181870;81;28150;-64
2022/07/06 01:20:45;;;;;;;11.73;10.05;;;;;;;14.35;78.76;100478.44;2181649;81;28643;-65
2022/07/06 01:23:47;;;;;;;9.88;8.88;;;;;;;14.33;78.76;100482.59;2181652;81;30963;-64
2022/07/06 01:26:49;;;;;;;13.50;9.50;;;;;;;14.32;78.68;100483.55;2181563;81;33005;-64
2022/07/06 01:29:50;;;;;;;14.40;9.55;;;;;;;14.30;78.84;100477.39;2181741;81;29483;-64
2022/07/06 01:32:51;;;;;;;10.38;9.25;;;;;;;14.28;78.74;100482.89;2181959;81;28152;-64
2022/07/06 01:35:52;;;;;;;13.38;9.50;;;;;;;14.27;78.71;100481.62;2181776;81;28627;-64
2022/07/06 01:38:59;;;;;;;17.17;10.88;;;;;;;14.27;78.72;100478.92;2181798;81;31032;-64
2022/07/06 01:42:00;;;;;;;13.65;10.32;;;;;;;14.25;78.95;100477.69;2181628;81;33112;-64
2022/07/06 01:45:04;;;;;;;10.95;9.85;;;;;;;14.25;78.89;100473.64;2181715;81;29712;-65
2022/07/06 01:48:08;;;;;;;13.55;9.15;;;;;;;14.23;78.94;100470.17;2181387;81;27722;-64
2022/07/06 01:51:11;;;;;;;12.58;8.75;;;;;;;14.22;78.79;100472.98;2181670;81;29337;-65
2022/07/06 01:54:12;;;;;;;13.10;8.98;;;;;;;14.22;78.83;100474.33;2181695;81;31196;-65
2022/07/06 01:57:14;;;;;;;11.30;8.80;;;;;;;14.19;78.90;100481.25;2181636;81;32140;-65
2022/07/06 02:00:15;;;;;;;11.50;8.95;;;;;;;14.16;79.00;100478.23;2181799;81;30089;-65
2022/07/06 02:03:16;;;;;;;11.75;9.88;;;;;;;14.15;79.02;100479.69;2179526;81;27735;-65
2022/07/06 02:06:18;;;;;;;15.43;10.13;;;;;;;14.11;79.15;100478.53;2181935;81;28839;-65
2022/07/06 02:09:19;;;;;;;12.20;9.63;;;;;;;14.10;79.18;100491.61;2181646;81;31017;-65
2022/07/06 02:12:21;;;;;;;11.80;10.60;;;;;;;14.08;79.22;100488.64;2181783;81;33733;-65
2022/07/06 02:15:22;;;;;;;12.25;9.38;;;;;;;14.08;79.36;100484.59;2181820;81;29345;-64
2022/07/06 02:18:23;;;;;;;11.43;10.23;;;;;;;14.06;79.32;100489.20;2181842;81;27698;-65
2022/07/06 02:21:25;;;;;;;12.25;10.65;;;;;;;14.05;79.48;100484.78;2181516;81;28082;-64
2022/07/06 02:24:26;;;;;;;10.88;9.73;;;;;;;14.05;79.65;100491.05;2181577;81;31152;-64
2022/07/06 02:27:27;;;;;;;12.65;11.38;;;;;;;14.06;79.60;100489.20;2181635;81;33004;-63
2022/07/06 02:30:29;;;;;;;11.95;10.43;;;;;;;14.05;79.74;100479.39;2181666;81;29297;-63
2022/07/06 02:33:30;;;;;;;17.65;10.82;;;;;;;14.05;79.66;100479.39;2181771;81;27709;-63
2022/07/06 02:36:33;;;;;;;11.20;9.30;;;;;;;14.05;79.68;100474.00;2181633;81;29032;-64
2022/07/06 02:39:34;;;;;;;12.50;10.53;;;;;;;14.05;79.65;100478.05;2181738;81;32177;-63
2022/07/06 02:42:35;;;;;;;12.85;10.23;;;;;;;14.04;79.68;100479.00;2181166;81;34190;-64
2022/07/06 02:45:37;;;;;;;12.95;10.20;;;;;;;14.03;79.71;100482.19;2181372;81;29382;-64
2022/07/06 02:48:38;;;;;;;11.03;9.93;;;;;;;14.02;79.69;100488.54;2181699;81;27829;-64
2022/07/06 02:51:39;;;;;;;10.03;9.03;;;;;;;14.01;79.66;100492.19;2168941;81;28625;-65
2022/07/06 02:54:40;;;;;;;11.38;10.03;;;;;;;13.98;79.67;100489.19;2144370;81;31000;-64
2022/07/06 02:57:42;;;;;;;12.68;9.40;;;;;;;13.97;79.70;100482.55;2144023;83;32929;-64
2022/07/06 03:00:43;;;;;;;10.55;9.48;;;;;;;13.98;79.81;100489.67;2144212;83;29295;-64
2022/07/06 03:03:44;;;;;;;15.55;10.48;;;;;;;14.00;79.85;100485.06;2144194;82;28168;-64
2022/07/06 03:06:46;;;;;;;11.83;10.15;;;;;;;14.05;80.04;100484.31;2144133;83;29855;-64
2022/07/06 03:09:47;;;;;;;11.30;10.18;;;;;;;14.13;80.18;100483.84;2144085;83;31916;-64
2022/07/06 03:12:48;;;;;;;12.45;10.20;;;;;;;14.20;80.33;100477.09;2144181;83;32988;-64
2022/07/06 03:15:50;;;;;;;14.90;10.05;;;;;;;14.29;80.35;100479.70;2143870;83;29423;-64
2022/07/06 03:18:51;;;;;;;11.28;10.13;;;;;;;14.36;80.38;100474.33;2144206;82;27697;-64
2022/07/06 03:21:52;;;;;;;13.22;10.65;;;;;;;14.43;80.44;100474.30;2158778;81;28651;-64
2022/07/06 03:24:53;;;;;;;14.93;10.93;;;;;;;14.51;80.49;100472.97;2181665;81;31710;-70
2022/07/06 03:27:55;;;;;;;15.53;10.23;;;;;;;14.57;80.60;100468.51;2181475;81;32924;-67
2022/07/06 03:30:56;;;;;;;12.05;8.78;;;;;;;14.79;82.20;100481.54;2181506;81;30080;-76
2022/07/06 03:33:57;;;;;;;12.85;11.03;;;;;;;14.99;81.97;100484.75;2181807;81;27672;-63
2022/07/06 03:36:58;;;;;;;14.78;11.18;;;;;;;15.06;80.92;100487.94;2181499;81;28628;-65
2022/07/06 03:40:00;;;;;;;16.95;11.83;;;;;;;15.08;80.68;100494.08;2181167;81;32214;-65
2022/07/06 03:43:01;;;;;;;19.35;11.85;;;;;;;15.09;80.46;100503.44;2181437;81;32916;-66
2022/07/06 03:46:02;;;;;;;15.45;11.68;;;;;;;15.10;80.35;100486.75;2181651;81;29334;-65
2022/07/06 03:49:03;;;;;;;21.97;11.83;;;;;;;15.13;80.34;100488.78;2181616;81;27643;-64
2022/07/06 03:52:05;;;;;;;12.93;9.80;;;;;;;15.17;80.22;100507.83;2181479;81;28677;-65
2022/07/06 03:55:11;;;;;;;19.25;10.32;;;;;;;15.23;80.47;100538.09;2181567;81;30686;-64
2022/07/06 03:58:13;;;;;;;12.33;9.43;;;;;;;15.23;80.47;100538.09;2181454;81;32969;-65
2022/07/06 04:01:14;;;;;;;13.18;10.30;;;;;;;15.27;80.11;100549.08;2181627;81;29352;-65
2022/07/06 04:04:16;;;;;;;13.35;9.45;;;;;;;15.28;80.15;100540.87;2181202;81;27675;-64
2022/07/06 04:07:17;;;;;;;13.58;9.50;;;;;;;15.29;79.87;100543.95;2181489;81;29514;-64
2022/07/06 04:10:18;;;;;;;14.87;10.40;;;;;;;15.30;79.99;100536.73;2181556;81;31040;-65
2022/07/06 04:13:19;;;;;;;13.75;10.00;;;;;;;15.35;79.96;100544.03;2181628;81;33160;-65
2022/07/06 04:16:21;;;;;;;17.02;9.68;;;;;;;15.48;80.14;100546.79;2181469;81;29368;-65
2022/07/06 04:19:22;;;;;;;14.07;9.20;;;;;;;15.48;80.14;100546.79;2181686;81;27699;-65
2022/07/06 04:22:23;;;;;;;13.93;7.97;;;;;;;15.52;79.70;100546.98;2181390;81;28712;-65
2022/07/06 04:25:25;;;;;;;10.05;7.62;;;;;;;15.56;79.52;100555.73;2181566;81;30965;-65
2022/07/06 04:28:27;;;;;;;10.35;8.28;;;;;;;15.57;79.41;100558.31;2181531;81;32990;-65
2022/07/06 04:31:28;;;;;;;16.85;9.03;;;;;;;15.57;79.22;100566.41;2181491;81;29413;-64
2022/07/06 04:34:30;;;;;;;12.37;8.08;;;;;;;15.57;79.38;100569.62;2181775;81;27615;-65
2022/07/06 04:37:31;;;;;;;11.73;8.48;;;;;;;15.55;79.41;100581.88;2181667;81;28692;-65
2022/07/06 04:40:33;;;;;;;18.17;8.15;;;;;;;15.50;79.43;100576.77;2181317;81;31060;-66
2022/07/06 04:43:34;;;;;;;13.95;7.47;;;;;;;15.45;79.38;100587.02;2181692;81;33856;-66
2022/07/06 04:46:36;;;;;;;10.03;7.25;;;;;;;15.41;79.44;100592.70;2181656;81;29303;-65
2022/07/06 04:49:38;;;;;;;12.25;7.20;;;;;;;15.38;79.55;100601.02;2181858;81;28236;-65
2022/07/06 04:52:40;;;;;;;10.10;7.28;;;;;;;15.39;79.76;100609.50;2181602;81;29708;-65
2022/07/06 04:55:41;;;;;;;9.78;7.00;;;;;;;15.38;79.66;100606.42;2181726;81;31807;-63
2022/07/06 04:58:43;;;;;;;10.10;7.22;;;;;;;15.34;79.58;100617.41;2181726;81;33050;-64
2022/07/06 05:01:44;;;;;;;8.13;6.58;;;;;;;15.31;79.56;100615.38;2182175;81;29335;-64
2022/07/06 05:04:46;;;;;;;10.88;6.58;;;;;;;15.30;79.76;100624.47;2177708;80;28251;-63
2022/07/06 05:07:48;;;;;;;10.88;6.05;;;;;;;15.30;79.92;100629.36;2139168;83;28773;-66
2022/07/06 05:10:51;;;;;;;7.92;5.72;;;;;;;15.30;79.71;100629.86;2138985;83;31301;-65
2022/07/06 05:13:54;;;;;;;6.37;5.62;;;;;;;15.29;79.87;100628.98;2138834;83;33121;-66
2022/07/06 05:16:55;;;;;;;7.87;5.17;;;;;;;15.27;79.87;100625.50;2139029;83;29377;-66
2022/07/06 05:19:58;;;;;;;9.90;5.92;;;;;;;15.29;80.04;100626.78;2139038;83;28273;-66
2022/07/06 05:23:00;;;;;;;8.75;4.72;;;;;;;15.29;80.11;100633.03;2120180;83;28692;-66
2022/07/06 05:26:02;;;;;;;8.05;5.70;;;;;;;15.31;80.17;100624.81;2138985;83;30873;-66
2022/07/06 05:29:04;;;;;;;8.55;5.25;;;;;;;15.31;80.14;100628.40;2139001;83;32891;-66
2022/07/06 05:32:07;;;;;;;8.90;5.28;;;;;;;15.35;80.28;100630.41;2139051;83;29332;-66
2022/07/06 05:35:09;;;;;;;7.12;4.97;;;;;;;15.34;80.04;100624.63;2139238;83;27630;-66
2022/07/06 05:38:11;;;;;;;8.63;4.87;;;;;;;15.36;80.31;100620.00;2139047;83;28643;-66
2022/07/06 05:41:13;;;;;;;5.47;4.90;;;;;;;15.36;80.09;100601.10;2138712;83;32091;-66
2022/07/06 05:44:15;;;;;;;7.28;4.80;;;;;;;15.36;80.09;100601.10;2138981;83;33117;-66
2022/07/06 05:50:20;;;;;;;17.12;5.62;;;;;;;15.40;80.16;100600.41;2051934;86;27784;-67
2022/07/06 05:53:21;;;;;;;12.85;5.05;;;;;;;15.42;80.08;100595.78;2087953;85;28647;-67
2022/07/06 05:56:23;;;;;;;10.55;4.85;;;;;;;15.45;80.34;100601.87;2087986;85;31797;-67
2022/07/06 05:59:24;;;;;;;10.32;5.92;;;;;;;15.49;80.36;100589.87;2087765;85;33278;-67
2022/07/06 06:02:26;;;;;;;6.85;5.33;;;;;;;15.54;80.30;100592.77;2087868;85;30118;-67
2022/07/06 06:05:29;;;;;;;7.62;5.50;;;;;;;15.59;80.47;100586.59;2100467;83;27744;-67
2022/07/06 06:08:31;;;;;;;9.20;5.60;;;;;;;15.64;80.65;100584.42;2120459;83;28721;-66
2022/07/06 06:11:36;;;;;;;8.55;5.30;;;;;;;15.69;80.67;100564.73;2120442;83;31159;-66
2022/07/06 06:14:39;;;;;;;12.70;5.83;;;;;;;15.73;80.28;100562.69;2120342;83;33027;-66
2022/07/06 06:17:41;;;;;;;6.00;5.35;;;;;;;15.75;80.59;100555.35;2120214;83;29412;-66
2022/07/06 06:20:43;;;;;;;8.53;5.78;;;;;;;15.75;80.59;100555.35;2109799;83;27852;-66
2022/07/06 06:23:45;;;;;;;6.72;5.08;;;;;;;15.79;80.74;100565.87;2077736;85;28645;-66
2022/07/06 06:26:47;;;;;;;5.75;4.65;;;;;;;15.84;80.49;100564.20;2096719;82;31191;-66
2022/07/06 06:29:48;;;;;;;5.62;5.15;;;;;;;15.87;80.18;100572.14;2158221;82;32911;-67
2022/07/06 06:32:50;;;;;;;11.28;5.72;;;;;;;15.90;80.28;100587.27;2157912;82;29407;-66
2022/07/06 06:35:53;;;;;;;6.22;5.20;;;;;;;15.95;80.57;100635.12;2158335;82;27586;-66
2022/07/06 06:38:55;;;;;;;7.67;6.10;;;;;;;16.06;80.86;100646.06;2158390;82;29353;-66
2022/07/06 06:41:58;;;;;;;9.45;6.05;;;;;;;16.21;81.05;100652.75;2158644;82;31049;-67
2022/07/06 06:45:00;;;;;;;8.25;6.05;;;;;;;16.37;80.78;100646.67;2158069;82;32974;-66
2022/07/06 06:48:02;;;;;;;8.88;5.90;;;;;;;16.55;80.80;100641.82;2158203;82;29483;-66
2022/07/06 06:51:06;;;;;;;11.73;6.12;;;;;;;16.77;81.01;100642.19;2157732;82;27748;-66
2022/07/06 06:54:07;;;;;;;9.20;6.30;;;;;;;16.95;80.67;100642.27;2156844;82;29621;-66
2022/07/06 06:57:09;;;;;;;11.90;6.25;;;;;;;17.11;80.59;100643.38;2157190;81;30324;-66
2022/07/06 07:00:12;;;;;;;6.80;5.12;;;;;;;17.30;80.28;100650.18;2157110;82;32973;-66
2022/07/06 07:03:14;;;;;;;10.45;5.83;;;;;;;17.46;79.89;100645.38;2157161;82;29355;-66
2022/07/06 07:06:15;;;;;;;9.93;5.55;;;;;;;17.67;79.96;100642.54;2157012;82;27779;-67
2022/07/06 07:09:16;;;;;;;8.85;4.95;;;;;;;17.95;79.97;100639.99;2156836;82;28870;-66
2022/07/06 07:12:18;;;;;;;5.00;4.50;;;;;;;18.63;80.70;100638.91;2157137;82;31187;-66
2022/07/06 07:15:19;;;;;;;6.03;4.10;;;;;;;19.49;80.08;100634.39;2157314;81;32796;-66
2022/07/06 07:18:20;;;;;;;7.22;4.85;;;;;;;20.31;79.20;100630.81;2157361;82;29348;-66
2022/07/06 07:21:22;;;;;;;7.20;3.25;;;;;;;21.35;77.74;100636.78;2157719;82;27899;-66
2022/07/06 07:24:23;;;;;;;4.45;3.77;;;;;;;22.26;76.32;100627.59;2158291;82;28618;-66
2022/07/06 07:27:26;;;;;;;5.08;3.58;;;;;;;23.24;75.93;100630.16;2158282;82;31183;-65
2022/07/06 07:30:27;;;;;;;3.75;2.85;;;;;;;24.06;73.91;100632.12;2158029;82;33789;-65
2022/07/06 07:33:28;;;;;;;3.17;2.87;;;;;;;24.80;71.45;100623.67;2157887;82;29391;-66
2022/07/06 07:36:30;;;;;;;5.30;3.17;;;;;;;25.47;70.53;100621.62;2158192;82;27639;-66
2022/07/06 07:39:32;;;;;;;4.03;2.60;;;;;;;26.06;68.93;100622.08;2157885;82;28705;-66
2022/07/06 07:42:34;;;;;;;5.28;2.05;;;;;;;26.52;67.31;100629.85;2158195;82;31207;-66
2022/07/06 07:45:38;;;;;;;4.70;2.20;;;;;;;27.01;66.31;100622.05;2158021;82;32976;-66
2022/07/06 07:48:40;;;;;;;3.30;2.33;;;;;;;27.49;64.94;100614.31;2158211;82;30027;-66
2022/07/06 07:51:43;;;;;;;3.40;1.90;;;;;;;27.91;63.37;100617.17;2156986;82;46137;-66
2022/07/06 07:54:48;;;;;;;3.47;2.17;;;;;;;28.25;62.04;100622.80;2157461;81;28703;-66
2022/07/06 07:57:52;;;;;;;3.70;2.25;;;;;;;28.54;61.02;100616.19;2156912;82;32025;-67
2022/07/06 08:00:54;;;;;;;3.40;1.92;;;;;;;28.77;59.80;100610.64;2157070;82;33758;-67
2022/07/06 08:03:55;;;;;;;4.25;2.27;;;;;;;29.01;58.86;100615.02;2157074;82;29730;-66
2022/07/06 08:06:56;;;;;;;3.67;2.62;;;;;;;29.23;57.59;100616.47;2164181;81;27623;-67
2022/07/06 08:09:59;;;;;;;3.37;2.27;;;;;;;29.43;56.24;100615.91;2167923;82;28734;-68
2022/07/06 08:13:00;;;;;;;3.72;2.83;;;;;;;29.52;55.78;100621.13;2168055;82;31008;-67
2022/07/06 08:16:01;;;;;;;4.47;2.58;;;;;;;29.62;54.87;100619.98;2167872;82;33718;-67
2022/07/06 08:19:03;;;;;;;5.90;2.15;;;;;;;29.79;54.90;100624.19;2167920;82;30294;-66
2022/07/06 08:22:06;;;;;;;2.65;2.45;;;;;;;29.82;52.80;100622.42;2174104;81;27783;-66
2022/07/06 08:25:08;;;;;;;6.63;2.53;;;;;;;29.86;52.18;100622.91;2175405;81;28652;-66
2022/07/06 08:28:09;;;;;;;2.65;2.02;;;;;;;29.86;51.34;100633.96;2175333;81;31805;-66
2022/07/06 08:31:11;;;;;;;3.62;2.10;;;;;;;29.86;50.06;100629.27;2175080;81;32974;-67
2022/07/06 08:34:12;;;;;;;5.67;2.15;;;;;;;29.76;49.43;100628.75;2175219;81;29286;-67
2022/07/06 08:37:14;;;;;;;2.52;2.12;;;;;;;29.60;48.75;100625.68;2175364;81;28251;-66
2022/07/06 08:40:15;;;;;;;3.40;2.02;;;;;;;29.50;48.18;100617.70;2174878;81;28948;-67
2022/07/06 08:43:17;;;;;;;7.83;2.33;;;;;;;29.50;48.19;100619.08;2175080;81;31309;-67
2022/07/06 08:46:20;;;;;;;4.60;2.10;;;;;;;29.59;47.96;100623.97;2175092;81;33714;-67
2022/07/06 08:49:22;;;;;;;5.60;2.12;;;;;;;29.61;47.18;100628.77;2174574;81;29329;-67
2022/07/06 08:52:24;;;;;;;9.48;2.60;;;;;;;29.67;45.90;100620.23;2167935;82;27603;-67
2022/07/06 08:55:28;;;;;;;3.70;2.20;;;;;;;29.49;46.42;100613.23;2167867;82;28634;-67
2022/07/06 08:58:29;;;;;;;4.70;2.20;;;;;;;29.53;45.53;100607.66;2168062;82;31037;-68
2022/07/06 09:01:32;;;;;;;4.33;2.00;;;;;;;29.58;46.25;100609.83;2167891;82;32962;-68
2022/07/06 09:04:34;;;;;;;4.17;2.33;;;;;;;29.75;46.08;100615.98;2144202;82;29392;-67
2022/07/06 09:07:35;;;;;;;4.50;2.90;;;;;;;29.73;45.30;100608.42;2159215;82;27723;-67
2022/07/06 09:10:37;;;;;;;4.00;2.47;;;;;;;29.71;44.96;100604.45;2157149;81;28682;-67
2022/07/06 09:13:38;;;;;;;4.15;2.22;;;;;;;29.68;44.61;100605.38;2157000;82;31008;-67
2022/07/06 09:16:39;;;;;;;2.33;2.12;;;;;;;29.70;44.71;100604.13;2157122;81;33055;-66
2022/07/06 09:19:40;;;;;;;3.12;2.27;;;;;;;29.77;45.21;100596.45;2157190;81;29314;-67
2022/07/06 09:22:42;;;;;;;3.60;2.20;;;;;;;29.82;44.75;100608.61;2158157;82;27727;-67
2022/07/06 09:25:49;;;;;;;5.17;2.83;;;;;;;29.79;43.36;100609.00;2158173;82;29594;-67
2022/07/06 09:28:51;;;;;;;3.02;2.72;;;;;;;29.74;44.23;100603.73;2158375;82;32008;-68
2022/07/06 09:32:01;;;;;;;6.58;2.77;;;;;;;29.69;43.32;100601.06;2158140;82;32965;-66
2022/07/06 09:35:03;;;;;;;7.60;2.72;;;;;;;29.55;43.21;100597.79;2158294;82;29333;-67
2022/07/06 09:38:13;;;;;;;6.67;2.80;;;;;;;29.44;43.07;100602.44;2158275;82;27655;-68
2022/07/06 09:41:20;;;;;;;4.15;2.70;;;;;;;29.38;42.99;100595.80;2158290;82;28652;-66
2022/07/06 09:44:31;;;;;;;3.15;2.85;;;;;;;29.25;42.79;100595.06;2154420;81;31878;-66
2022/07/06 09:47:33;;;;;;;6.33;3.12;;;;;;;29.16;43.28;100589.33;2157750;82;34068;-67
2022/07/06 09:50:43;;;;;;;3.77;2.62;;;;;;;29.25;42.68;100590.92;2157830;82;29345;-66
2022/07/06 09:53:50;;;;;;;4.90;3.27;;;;;;;29.16;43.16;100584.65;2157384;81;27701;-66
2022/07/06 09:56:52;;;;;;;4.22;2.67;;;;;;;29.26;43.00;100585.23;2157387;82;29464;-67
2022/07/06 09:59:54;;;;;;;5.58;2.83;;;;;;;29.00;42.33;100587.11;2157350;82;31014;-65
2022/07/06 10:02:56;;;;;;;6.15;2.83;;;;;;;28.88;42.45;100582.59;2157455;81;33005;-64
2022/07/06 10:05:57;;;;;;;3.25;2.37;;;;;;;28.83;42.28;100585.59;2157720;81;30124;-65
2022/07/06 10:08:59;;;;;;;4.75;2.90;;;;;;;28.60;41.73;100583.21;2161965;82;28293;-65
2022/07/06 10:12:02;;;;;;;3.45;2.37;;;;;;;28.34;41.66;100583.64;2161868;82;28746;-64
2022/07/06 10:15:14;;;;;;;2.42;2.00;;;;;;;28.13;42.03;100582.44;2162098;82;31833;-65
2022/07/06 10:18:20;;;;;;;3.95;2.90;;;;;;;28.03;42.02;100588.69;2111662;82;27945;-65
2022/07/06 10:21:23;;;;;;;5.95;2.25;;;;;;;27.96;42.02;100580.81;2161991;82;29526;-66
2022/07/06 10:24:24;;;;;;;5.37;2.85;;;;;;;27.98;42.53;100580.12;2162724;82;27643;-65
2022/07/06 10:27:26;;;;;;;3.92;2.72;;;;;;;27.87;42.22;100578.64;2162510;82;28607;-65
2022/07/06 10:30:28;;;;;;;3.35;2.02;;;;;;;27.90;42.21;100578.28;2162507;82;31110;-65
2022/07/06 10:33:31;;;;;;;7.17;2.15;;;;;;;27.89;41.73;100583.45;2162155;82;33136;-66
2022/07/06 10:36:42;;;;;;;2.80;1.92;;;;;;;27.89;41.67;100580.70;2162398;82;30291;-66
2022/07/06 10:43:02;;;;;;;2.67;1.67;;;;;;;27.95;41.22;100565.33;2031899;86;28671;-66
2022/07/06 10:46:15;;;;;;;4.92;2.00;;;;;;;28.11;40.65;100564.39;2019445;88;31900;-66
2022/07/06 10:49:17;;;;;;;3.77;2.00;;;;;;;28.05;39.75;100565.42;2072362;85;33303;-66
2022/07/06 10:52:18;;;;;;;5.30;2.22;;;;;;;27.89;39.52;100566.93;2054531;86;29380;-66
2022/07/06 10:55:37;;;;;;;3.05;2.05;;;;;;;27.63;39.44;100579.67;2077081;85;27767;-66
2022/07/06 10:58:53;;;;;;;5.45;2.20;;;;;;;27.38;40.00;100584.77;2054645;86;28660;-65
2022/07/06 11:02:14;;;;;;;5.50;2.37;;;;;;;27.16;40.17;100578.17;2054419;86;31046;-66
2022/07/06 11:05:41;;;;;;;4.78;2.58;;;;;;;26.99;40.55;100586.98;2054373;86;33007;-65
2022/07/06 11:08:58;;;;;;;4.70;2.37;;;;;;;27.00;40.78;100585.95;2045955;85;29422;-67
2022/07/06 11:12:13;;;;;;;5.65;2.50;;;;;;;26.98;40.04;100577.89;2009759;88;27841;-67
2022/07/06 11:15:37;;;;;;;5.08;2.72;;;;;;;26.88;39.63;100588.25;2063694;86;28675;-67
2022/07/06 11:18:42;;;;;;;6.70;2.60;;;;;;;26.64;39.39;100587.23;2048013;82;31060;-67
2022/07/06 11:21:51;;;;;;;7.15;2.80;;;;;;;26.41;39.63;100587.10;2155346;82;33758;-65
2022/07/06 11:24:55;;;;;;;4.75;2.95;;;;;;;26.18;40.35;100592.44;2156125;82;29381;-65
2022/07/06 11:27:58;;;;;;;4.33;2.52;;;;;;;25.87;40.08;100597.19;2156165;82;27698;-66
2022/07/06 11:31:05;;;;;;;5.53;2.45;;;;;;;25.55;40.53;100611.19;2130847;82;27700;-68
2022/07/06 11:34:30;;;;;;;3.87;2.50;;;;;;;25.24;40.94;100607.59;2155138;82;27868;-67
2022/07/06 11:37:34;;;;;;;4.90;2.83;;;;;;;25.03;41.36;100600.14;2156333;82;33785;-66
2022/07/06 11:40:38;;;;;;;3.42;2.12;;;;;;;24.99;41.65;100600.11;2155611;82;29370;-66
2022/07/06 11:43:45;;;;;;;5.67;2.30;;;;;;;25.02;42.04;100602.53;2156330;82;27739;-66
2022/07/06 11:46:47;;;;;;;4.37;2.02;;;;;;;25.12;42.23;100602.41;2155785;82;28721;-67
2022/07/06 11:49:52;;;;;;;5.42;2.02;;;;;;;25.30;42.38;100606.95;2155692;82;32042;-66
2022/07/06 11:52:54;;;;;;;3.08;2.10;;;;;;;25.54;42.45;100605.36;2156368;82;33600;-67
2022/07/06 11:56:04;;;;;;;2.62;1.98;;;;;;;25.66;42.30;100597.15;2156033;82;29340;-66
2022/07/06 11:59:06;;;;;;;2.87;1.70;;;;;;;25.72;40.95;100596.48;2156251;82;27643;-66
2022/07/06 12:02:13;;;;;;;4.17;2.25;;;;;;;25.70;41.58;100594.42;2155721;82;27702;-66
2022/07/06 12:05:30;;;;;;;8.43;1.80;;;;;;;25.75;41.55;100587.05;2156199;82;31835;-66
2022/07/06 12:08:34;;;;;;;5.58;2.12;;;;;;;25.68;40.54;100588.73;2173590;81;33816;-66
2022/07/06 12:11:39;;;;;;;5.30;2.05;;;;;;;25.55;41.35;100585.13;2152358;81;37496;-66
2022/07/06 12:14:42;;;;;;;2.60;1.87;;;;;;;25.43;41.23;100590.91;2177857;81;27691;-65
2022/07/06 12:17:48;;;;;;;4.47;1.80;;;;;;;25.24;40.36;100587.90;2177579;81;28642;-66
2022/07/06 12:20:50;;;;;;;4.78;1.52;;;;;;;25.11;41.30;100584.77;2177692;81;31135;-65
2022/07/06 12:23:53;;;;;;;7.25;1.42;;;;;;;25.15;41.16;100583.42;2151752;81;33742;-66
2022/07/06 12:26:55;;;;;;;2.72;1.57;;;;;;;25.24;41.11;100575.56;2177546;81;30124;-68
2022/07/06 12:30:12;;;;;;;1.62;1.20;;;;;;;25.38;40.17;100580.06;2177670;81;27738;-66
2022/07/06 12:33:16;;;;;;;5.22;1.25;;;;;;;25.45;39.85;100585.27;2177566;81;28657;-65
2022/07/06 12:36:18;;;;;;;5.33;1.82;;;;;;;25.51;40.04;100580.99;2177903;81;31018;-66
2022/07/06 12:39:24;;;;;;;4.85;1.17;;;;;;;25.51;38.56;100580.99;2179726;81;32970;-66
2022/07/06 12:42:26;;;;;;;1.55;1.10;;;;;;;25.43;39.07;100578.56;2180930;81;29311;-66
2022/07/06 12:45:29;;;;;;;3.30;1.30;;;;;;;25.27;38.71;100575.23;2181395;81;27743;-67
2022/07/06 12:48:31;;;;;;;5.03;1.10;;;;;;;25.15;38.21;100562.86;2181584;81;28130;-65
2022/07/06 12:51:49;;;;;;;3.50;1.15;;;;;;;25.14;38.73;100564.73;2181666;81;31116;-66
2022/07/06 12:54:52;;;;;;;1.07;0.95;;;;;;;25.25;39.26;100571.80;2180382;81;33893;-65
2022/07/06 12:57:54;;;;;;;1.20;1.07;;;;;;;25.42;38.48;100575.47;2181507;81;29357;-65
2022/07/06 13:00:58;;;;;;;;;;;;;;;25.53;38.17;100570.19;2183762;81;27710;-62
2022/07/06 13:04:00;;;;;;;2.25;0.95;;;;;;;25.56;37.76;100568.48;2181284;81;28714;-62
2022/07/06 13:07:04;;;;;;;5.12;1.37;;;;;;;25.51;37.92;100576.34;2181013;81;31103;-65
2022/07/06 13:10:12;;;;;;;2.10;1.25;;;;;;;25.52;38.21;100575.33;2178132;81;33021;-64
2022/07/06 13:13:17;;;;;;;1.92;1.20;;;;;;;25.50;37.51;100566.93;2152166;81;29430;-65
2022/07/06 13:16:24;;;;;;;4.92;1.47;;;;;;;25.42;37.55;100582.33;2158954;81;27664;-64
2022/07/06 13:19:25;;;;;;;2.80;1.45;;;;;;;25.34;37.68;100581.75;2177697;81;29374;-64
2022/07/06 13:22:26;;;;;;;3.72;1.20;;;;;;;25.32;37.87;100577.47;2178325;81;31105;-65
2022/07/06 13:25:28;;;;;;;8.25;3.10;;;;;;;25.30;38.07;100580.89;2181638;81;33572;-63
2022/07/06 13:28:30;;;;;;;8.03;1.40;;;;;;;25.19;38.17;100582.05;2181872;81;29350;-65
2022/07/06 13:31:32;;;;;;;3.45;1.70;;;;;;;25.08;37.96;100580.45;2181831;81;28221;-66
2022/07/06 13:34:35;;;;;;;4.45;2.40;;;;;;;24.96;37.68;100579.03;2181844;81;29329;-65
2022/07/06 13:37:36;;;;;;;2.37;1.30;;;;;;;24.93;38.68;100584.84;2181234;81;31096;-65
2022/07/06 13:40:38;;;;;;;2.08;1.20;;;;;;;25.01;38.52;100578.88;2180191;81;33723;-66
2022/07/06 13:43:39;;;;;;;3.50;1.20;;;;;;;25.20;39.16;100576.06;2181315;81;30125;-65
2022/07/06 13:46:42;;;;;;;2.67;1.20;;;;;;;25.34;38.48;100585.87;2179956;81;28204;-63
2022/07/06 13:49:47;;;;;;;3.60;0.98;;;;;;;25.34;37.93;100588.61;2181728;81;29796;-64
2022/07/06 13:52:47;;;;;;;2.80;1.00;;;;;;;25.25;37.91;100576.41;2180650;81;32027;-66
2022/07/06 13:55:49;;;;;;;3.80;1.12;;;;;;;25.24;37.69;100575.56;2177667;81;32974;-65
2022/07/06 13:58:51;;;;;;;5.17;1.10;;;;;;;25.32;37.93;100571.45;2177786;81;29502;-65
2022/07/06 14:01:53;;;;;;;1.60;0.88;;;;;;;25.49;37.88;100568.80;2177770;81;27616;-65
2022/07/06 14:04:54;;;;;;;1.55;1.00;;;;;;;25.72;37.47;100564.05;2177354;81;28651;-64
2022/07/06 14:07:56;;;;;;;2.87;1.10;;;;;;;25.84;36.68;100567.34;2174604;81;31880;-65
2022/07/06 14:10:59;;;;;;;2.95;1.65;;;;;;;25.86;36.71;100563.38;2168438;81;33016;-67
2022/07/06 14:14:00;;;;;;;2.08;1.07;;;;;;;25.92;37.18;100570.07;2174852;81;29587;-65